createdAt,value
2018-06-15T00:00:09.638Z,1024.38241804
2018-06-15T00:00:22.044Z,1024.38241804
2018-06-15T00:00:34.474Z,1024.38241804
2018-06-15T00:00:46.963Z,1024.38241804
2018-06-15T00:00:59.568Z,1024.38241804
2018-06-15T00:01:12.012Z,1024.34855416
2018-06-15T00:01:24.492Z,1024.34855416
2018-06-15T00:01:36.899Z,1024.34855416
2018-06-15T00:01:49.318Z,1024.34855416
2018-06-15T00:02:01.720Z,1024.38241804
2018-06-15T00:02:14.121Z,1024.38241804
2018-06-15T00:02:26.569Z,1024.38241804
2018-06-15T00:02:39.135Z,1024.38241804
2018-06-15T00:02:51.556Z,1024.38241804
2018-06-15T00:03:03.997Z,1024.38241804
2018-06-15T00:03:16.408Z,1024.38241804
2018-06-15T00:03:28.806Z,1024.38241804
2018-06-15T00:03:41.243Z,1024.38241804
2018-06-15T00:03:53.634Z,1024.38241804
2018-06-15T00:04:06.027Z,1024.48400969
2018-06-15T00:04:18.428Z,1024.48400969
2018-06-15T00:04:30.848Z,1024.48400969
2018-06-15T00:04:43.299Z,1024.48400969
2018-06-15T00:04:55.698Z,1024.48400969
2018-06-15T00:05:08.111Z,1024.34855416
2018-06-15T00:05:20.512Z,1024.34855416
2018-06-15T00:05:32.937Z,1024.34855416
2018-06-15T00:05:45.350Z,1024.34855416
2018-06-15T00:05:57.737Z,1024.34855416
2018-06-15T00:06:10.158Z,1024.45014581
2018-06-15T00:06:22.582Z,1024.45014581
2018-06-15T00:06:34.980Z,1024.45014581
2018-06-15T00:06:47.537Z,1024.45014581
2018-06-15T00:06:59.933Z,1024.45014581
2018-06-15T00:07:12.354Z,1024.45014581
2018-06-15T00:07:24.746Z,1024.45014581
2018-06-15T00:07:37.182Z,1024.45014581
2018-06-15T00:07:49.573Z,1024.45014581
2018-06-15T00:08:02.006Z,1024.45014581
2018-06-15T00:08:14.430Z,1024.45014581
2018-06-15T00:08:26.835Z,1024.45014581
2018-06-15T00:08:39.236Z,1024.45014581
2018-06-15T00:08:51.647Z,1024.45014581
2018-06-15T00:09:04.043Z,1024.38241804
2018-06-15T00:09:16.435Z,1024.38241804
2018-06-15T00:09:28.844Z,1024.38241804
2018-06-15T00:09:41.238Z,1024.38241804
2018-06-15T00:09:53.647Z,1024.38241804
2018-06-15T00:10:06.052Z,1024.48400969
2018-06-15T00:10:18.481Z,1024.48400969
2018-06-15T00:10:30.923Z,1024.48400969
2018-06-15T00:10:43.344Z,1024.48400969
2018-06-15T00:10:55.736Z,1024.48400969
2018-06-15T00:11:08.138Z,1024.41628192
2018-06-15T00:11:20.707Z,1024.41628192
2018-06-15T00:11:33.111Z,1024.41628192
2018-06-15T00:11:45.514Z,1024.41628192
2018-06-15T00:11:57.934Z,1024.41628192
2018-06-15T00:12:10.314Z,1024.48400969
2018-06-15T00:12:22.706Z,1024.48400969
2018-06-15T00:12:35.102Z,1024.48400969
2018-06-15T00:12:47.511Z,1024.48400969
2018-06-15T00:12:59.957Z,1024.48400969
2018-06-15T00:13:12.388Z,1024.45014581
2018-06-15T00:13:24.817Z,1024.45014581
2018-06-15T00:13:37.230Z,1024.45014581
2018-06-15T00:13:49.618Z,1024.45014581
2018-06-15T00:14:02.028Z,1024.45014581
2018-06-15T00:14:14.460Z,1024.45014581
2018-06-15T00:14:26.856Z,1024.45014581
2018-06-15T00:14:39.257Z,1024.45014581
2018-06-15T00:14:51.683Z,1024.45014581
2018-06-15T00:15:04.078Z,1024.45014581
2018-06-15T00:15:16.467Z,1024.45014581
2018-06-15T00:15:28.883Z,1024.45014581
2018-06-15T00:15:41.299Z,1024.45014581
2018-06-15T00:15:53.689Z,1024.45014581
2018-06-15T00:16:06.101Z,1024.45014581
2018-06-15T00:16:18.503Z,1024.45014581
2018-06-15T00:16:30.929Z,1024.45014581
2018-06-15T00:16:43.329Z,1024.45014581
2018-06-15T00:16:55.724Z,1024.45014581
2018-06-15T00:17:08.106Z,1024.41628192
2018-06-15T00:17:20.527Z,1024.41628192
2018-06-15T00:17:33.093Z,1024.41628192
2018-06-15T00:17:45.487Z,1024.41628192
2018-06-15T00:17:57.914Z,1024.41628192
2018-06-15T00:18:10.297Z,1024.55173745
2018-06-15T00:18:22.703Z,1024.55173745
2018-06-15T00:18:35.110Z,1024.55173745
2018-06-15T00:18:47.517Z,1024.55173745
2018-06-15T00:18:59.935Z,1024.55173745
2018-06-15T00:19:12.335Z,1024.61946521
2018-06-15T00:19:24.859Z,1024.61946521
2018-06-15T00:19:37.260Z,1024.61946521
2018-06-15T00:19:49.660Z,1024.61946521
2018-06-15T00:20:02.079Z,1024.65332909
2018-06-15T00:20:14.492Z,1024.65332909
2018-06-15T00:20:26.879Z,1024.65332909
2018-06-15T00:20:39.295Z,1024.65332909
2018-06-15T00:20:51.853Z,1024.65332909
2018-06-15T00:21:04.233Z,1024.75492074
2018-06-15T00:21:16.652Z,1024.75492074
2018-06-15T00:21:29.073Z,1024.75492074
2018-06-15T00:21:41.473Z,1024.75492074
2018-06-15T00:21:53.853Z,1024.75492074
2018-06-15T00:22:06.328Z,1024.65332909
2018-06-15T00:22:18.713Z,1024.65332909
2018-06-15T00:22:31.273Z,1024.65332909
2018-06-15T00:22:43.669Z,1024.65332909
2018-06-15T00:22:56.318Z,1024.65332909
2018-06-15T00:23:08.722Z,1024.68719298
2018-06-15T00:23:21.129Z,1024.68719298
2018-06-15T00:23:33.519Z,1024.68719298
2018-06-15T00:23:45.979Z,1024.68719298
2018-06-15T00:23:58.421Z,1024.68719298
2018-06-15T00:24:10.851Z,1024.78878462
2018-06-15T00:24:23.242Z,1024.78878462
2018-06-15T00:24:35.648Z,1024.78878462
2018-06-15T00:24:48.054Z,1024.78878462
2018-06-15T00:25:00.458Z,1024.78878462
2018-06-15T00:25:12.848Z,1024.78878462
2018-06-15T00:25:25.308Z,1024.78878462
2018-06-15T00:25:37.733Z,1024.78878462
2018-06-15T00:25:50.138Z,1024.78878462
2018-06-15T00:26:02.559Z,1024.68719298
2018-06-15T00:26:14.967Z,1024.68719298
2018-06-15T00:26:27.359Z,1024.68719298
2018-06-15T00:26:39.750Z,1024.68719298
2018-06-15T00:26:52.143Z,1024.68719298
2018-06-15T00:27:04.563Z,1024.75492074
2018-06-15T00:27:16.974Z,1024.75492074
2018-06-15T00:27:29.366Z,1024.75492074
2018-06-15T00:27:41.790Z,1024.75492074
2018-06-15T00:27:54.230Z,1024.75492074
2018-06-15T00:28:06.787Z,1024.68719298
2018-06-15T00:28:19.185Z,1024.68719298
2018-06-15T00:28:31.578Z,1024.68719298
2018-06-15T00:28:44.022Z,1024.68719298
2018-06-15T00:28:56.428Z,1024.68719298
2018-06-15T00:29:08.824Z,1024.61946521
2018-06-15T00:29:21.233Z,1024.61946521
2018-06-15T00:29:33.859Z,1024.61946521
2018-06-15T00:29:46.358Z,1024.61946521
2018-06-15T00:29:58.762Z,1024.61946521
2018-06-15T00:30:11.161Z,1024.68719298
2018-06-15T00:30:23.572Z,1024.68719298
2018-06-15T00:30:35.992Z,1024.68719298
2018-06-15T00:30:48.406Z,1024.68719298
2018-06-15T00:31:00.809Z,1024.68719298
2018-06-15T00:31:13.311Z,1024.68719298
2018-06-15T00:31:25.879Z,1024.68719298
2018-06-15T00:31:38.341Z,1024.68719298
2018-06-15T00:31:50.813Z,1024.68719298
2018-06-15T00:32:03.252Z,1024.72105686
2018-06-15T00:32:15.668Z,1024.72105686
2018-06-15T00:32:28.066Z,1024.72105686
2018-06-15T00:32:40.469Z,1024.72105686
2018-06-15T00:32:52.878Z,1024.72105686
2018-06-15T00:33:05.282Z,1024.78878462
2018-06-15T00:33:17.688Z,1024.78878462
2018-06-15T00:33:30.069Z,1024.78878462
2018-06-15T00:33:42.481Z,1024.78878462
2018-06-15T00:33:54.897Z,1024.78878462
2018-06-15T00:34:07.333Z,1024.61946521
2018-06-15T00:34:19.730Z,1024.61946521
2018-06-15T00:34:32.184Z,1024.61946521
2018-06-15T00:34:44.596Z,1024.61946521
2018-06-15T00:34:57.042Z,1024.61946521
2018-06-15T00:35:09.479Z,1024.75492074
2018-06-15T00:35:21.915Z,1024.75492074
2018-06-15T00:35:34.309Z,1024.75492074
2018-06-15T00:35:46.752Z,1024.75492074
2018-06-15T00:35:59.172Z,1024.75492074
2018-06-15T00:36:11.597Z,1024.65332909
2018-06-15T00:36:24.090Z,1024.65332909
2018-06-15T00:36:36.499Z,1024.65332909
2018-06-15T00:36:48.912Z,1024.65332909
2018-06-15T00:37:01.341Z,1024.65332909
2018-06-15T00:37:13.734Z,1024.65332909
2018-06-15T00:37:26.143Z,1024.65332909
2018-06-15T00:37:38.559Z,1024.65332909
2018-06-15T00:37:50.946Z,1024.65332909
2018-06-15T00:38:03.342Z,1024.68719298
2018-06-15T00:38:15.737Z,1024.68719298
2018-06-15T00:38:28.129Z,1024.68719298
2018-06-15T00:38:40.566Z,1024.68719298
2018-06-15T00:38:52.981Z,1024.68719298
2018-06-15T00:39:05.380Z,1024.75492074
2018-06-15T00:39:17.793Z,1024.75492074
2018-06-15T00:39:30.403Z,1024.75492074
2018-06-15T00:39:42.796Z,1024.75492074
2018-06-15T00:39:55.196Z,1024.75492074
2018-06-15T00:40:07.592Z,1024.75492074
2018-06-15T00:40:20.008Z,1024.75492074
2018-06-15T00:40:32.431Z,1024.75492074
2018-06-15T00:40:44.826Z,1024.75492074
2018-06-15T00:40:57.223Z,1024.75492074
2018-06-15T00:41:09.654Z,1024.8226485
2018-06-15T00:41:22.058Z,1024.8226485
2018-06-15T00:41:34.459Z,1024.8226485
2018-06-15T00:41:46.856Z,1024.8226485
2018-06-15T00:41:59.271Z,1024.8226485
2018-06-15T00:42:11.670Z,1024.75492074
2018-06-15T00:42:24.072Z,1024.75492074
2018-06-15T00:42:36.494Z,1024.75492074
2018-06-15T00:42:48.893Z,1024.75492074
2018-06-15T00:43:01.291Z,1024.89037627
2018-06-15T00:43:13.696Z,1024.89037627
2018-06-15T00:43:26.102Z,1024.89037627
2018-06-15T00:43:38.520Z,1024.89037627
2018-06-15T00:43:50.924Z,1024.89037627
2018-06-15T00:44:03.333Z,1024.92424015
2018-06-15T00:44:15.734Z,1024.92424015
2018-06-15T00:44:28.188Z,1024.92424015
2018-06-15T00:44:40.594Z,1024.92424015
2018-06-15T00:44:53.062Z,1024.92424015
2018-06-15T00:45:05.470Z,1024.95810403
2018-06-15T00:45:17.879Z,1024.95810403
2018-06-15T00:45:30.302Z,1024.95810403
2018-06-15T00:45:42.732Z,1024.95810403
2018-06-15T00:45:55.356Z,1024.95810403
2018-06-15T00:46:07.778Z,1024.95810403
2018-06-15T00:46:20.193Z,1024.95810403
2018-06-15T00:46:32.583Z,1024.95810403
2018-06-15T00:46:44.984Z,1024.95810403
2018-06-15T00:46:57.380Z,1024.95810403
2018-06-15T00:47:09.853Z,1024.99196791
2018-06-15T00:47:22.276Z,1024.99196791
2018-06-15T00:47:34.668Z,1024.99196791
2018-06-15T00:47:47.060Z,1024.99196791
2018-06-15T00:47:59.464Z,1024.99196791
2018-06-15T00:48:11.869Z,1024.99196791
2018-06-15T00:48:24.257Z,1024.99196791
2018-06-15T00:48:36.823Z,1024.99196791
2018-06-15T00:48:49.334Z,1024.99196791
2018-06-15T00:49:02.204Z,1025.05969567
2018-06-15T00:49:14.649Z,1025.05969567
2018-06-15T00:49:27.119Z,1025.05969567
2018-06-15T00:49:39.549Z,1025.05969567
2018-06-15T00:49:51.968Z,1025.05969567
2018-06-15T00:50:04.447Z,1024.95810403
2018-06-15T00:50:16.863Z,1024.95810403
2018-06-15T00:50:29.273Z,1024.95810403
2018-06-15T00:50:41.667Z,1024.95810403
2018-06-15T00:50:54.092Z,1024.95810403
2018-06-15T00:51:06.501Z,1024.95810403
2018-06-15T00:51:18.910Z,1024.95810403
2018-06-15T00:51:31.309Z,1024.95810403
2018-06-15T00:51:43.793Z,1024.95810403
2018-06-15T00:51:56.213Z,1024.95810403
2018-06-15T00:52:08.603Z,1025.02583179
2018-06-15T00:52:21.042Z,1025.02583179
2018-06-15T00:52:33.544Z,1025.02583179
2018-06-15T00:52:45.967Z,1025.02583179
2018-06-15T00:52:58.415Z,1025.02583179
2018-06-15T00:53:10.842Z,1024.92424015
2018-06-15T00:53:23.260Z,1024.92424015
2018-06-15T00:53:35.699Z,1024.92424015
2018-06-15T00:53:48.103Z,1024.92424015
2018-06-15T00:54:00.576Z,1024.99196791
2018-06-15T00:54:12.985Z,1024.99196791
2018-06-15T00:54:25.385Z,1024.99196791
2018-06-15T00:54:37.783Z,1024.99196791
2018-06-15T00:54:50.197Z,1024.99196791
2018-06-15T00:55:02.612Z,1024.99196791
2018-06-15T00:55:15.009Z,1024.99196791
2018-06-15T00:55:27.454Z,1024.99196791
2018-06-15T00:55:39.864Z,1024.99196791
2018-06-15T00:55:52.403Z,1024.99196791
2018-06-15T00:56:04.843Z,1024.95810403
2018-06-15T00:56:17.262Z,1024.95810403
2018-06-15T00:56:29.661Z,1024.95810403
2018-06-15T00:56:42.089Z,1024.95810403
2018-06-15T00:56:54.523Z,1024.95810403
2018-06-15T00:57:06.935Z,1025.02583179
2018-06-15T00:57:19.349Z,1025.02583179
2018-06-15T00:57:31.760Z,1025.02583179
2018-06-15T00:57:44.163Z,1025.02583179
2018-06-15T00:57:56.599Z,1025.02583179
2018-06-15T00:58:09.021Z,1024.99196791
2018-06-15T00:58:21.412Z,1024.99196791
2018-06-15T00:58:33.800Z,1024.99196791
2018-06-15T00:58:46.201Z,1024.99196791
2018-06-15T00:58:58.607Z,1024.99196791
2018-06-15T00:59:11.052Z,1024.95810403
2018-06-15T00:59:23.445Z,1024.95810403
2018-06-15T00:59:35.849Z,1024.95810403
2018-06-15T00:59:48.256Z,1024.95810403
2018-06-15T01:00:00.663Z,1024.95810403
2018-06-15T01:00:13.098Z,1024.99196791
2018-06-15T01:00:25.527Z,1024.99196791
2018-06-15T01:00:38.079Z,1024.99196791
2018-06-15T01:00:50.487Z,1024.99196791
2018-06-15T01:01:03.060Z,1024.99196791
2018-06-15T01:01:15.489Z,1024.99196791
2018-06-15T01:01:27.919Z,1024.99196791
2018-06-15T01:01:40.335Z,1024.99196791
2018-06-15T01:01:52.767Z,1024.99196791
2018-06-15T01:02:05.180Z,1025.05969567
2018-06-15T01:02:17.572Z,1025.05969567
2018-06-15T01:02:30.123Z,1025.05969567
2018-06-15T01:02:42.526Z,1025.05969567
2018-06-15T01:02:54.951Z,1025.05969567
2018-06-15T01:03:07.356Z,1025.05969567
2018-06-15T01:03:19.752Z,1025.05969567
2018-06-15T01:03:32.168Z,1025.05969567
2018-06-15T01:03:44.628Z,1025.05969567
2018-06-15T01:03:57.043Z,1025.05969567
2018-06-15T01:04:09.472Z,1025.05969567
2018-06-15T01:04:21.877Z,1025.05969567
2018-06-15T01:04:34.273Z,1025.05969567
2018-06-15T01:04:46.666Z,1025.05969567
2018-06-15T01:04:59.083Z,1025.05969567
2018-06-15T01:05:11.496Z,1025.12742344
2018-06-15T01:05:23.904Z,1025.12742344
2018-06-15T01:05:36.308Z,1025.12742344
2018-06-15T01:05:48.717Z,1025.12742344
2018-06-15T01:06:01.110Z,1025.05969567
2018-06-15T01:06:13.509Z,1025.05969567
2018-06-15T01:06:25.924Z,1025.05969567
2018-06-15T01:06:38.318Z,1025.05969567
2018-06-15T01:06:50.956Z,1025.05969567
2018-06-15T01:07:03.363Z,1025.09355956
2018-06-15T01:07:15.773Z,1025.09355956
2018-06-15T01:07:28.188Z,1025.09355956
2018-06-15T01:07:40.604Z,1025.09355956
2018-06-15T01:07:53.042Z,1025.09355956
2018-06-15T01:08:05.450Z,1025.05969567
2018-06-15T01:08:17.839Z,1025.05969567
2018-06-15T01:08:30.239Z,1025.05969567
2018-06-15T01:08:42.631Z,1025.05969567
2018-06-15T01:08:55.049Z,1025.05969567
2018-06-15T01:09:07.458Z,1025.09355956
2018-06-15T01:09:19.858Z,1025.09355956
2018-06-15T01:09:32.257Z,1025.09355956
2018-06-15T01:09:44.669Z,1025.09355956
2018-06-15T01:09:57.072Z,1025.09355956
2018-06-15T01:10:09.473Z,1025.12742344
2018-06-15T01:10:21.864Z,1025.12742344
2018-06-15T01:10:34.261Z,1025.12742344
2018-06-15T01:10:46.681Z,1025.12742344
2018-06-15T01:10:59.134Z,1025.12742344
2018-06-15T01:11:11.548Z,1025.09355956
2018-06-15T01:11:23.953Z,1025.09355956
2018-06-15T01:11:36.348Z,1025.09355956
2018-06-15T01:11:48.791Z,1025.09355956
2018-06-15T01:12:01.213Z,1025.16128732
2018-06-15T01:12:13.641Z,1025.16128732
2018-06-15T01:12:26.077Z,1025.16128732
2018-06-15T01:12:38.480Z,1025.16128732
2018-06-15T01:12:50.912Z,1025.16128732
2018-06-15T01:13:03.324Z,1025.05969567
2018-06-15T01:13:15.736Z,1025.05969567
2018-06-15T01:13:28.183Z,1025.05969567
2018-06-15T01:13:40.577Z,1025.05969567
2018-06-15T01:13:53.026Z,1025.05969567
2018-06-15T01:14:05.432Z,1025.12742344
2018-06-15T01:14:17.851Z,1025.12742344
2018-06-15T01:14:30.259Z,1025.12742344
2018-06-15T01:14:42.690Z,1025.12742344
2018-06-15T01:14:55.154Z,1025.12742344
2018-06-15T01:15:07.708Z,1025.09355956
2018-06-15T01:15:20.135Z,1025.09355956
2018-06-15T01:15:32.593Z,1025.09355956
2018-06-15T01:15:44.990Z,1025.09355956
2018-06-15T01:15:57.386Z,1025.09355956
2018-06-15T01:16:09.779Z,1025.12742344
2018-06-15T01:16:22.181Z,1025.12742344
2018-06-15T01:16:34.590Z,1025.12742344
2018-06-15T01:16:47.005Z,1025.12742344
2018-06-15T01:16:59.398Z,1025.12742344
2018-06-15T01:17:11.794Z,1025.09355956
2018-06-15T01:17:24.198Z,1025.09355956
2018-06-15T01:17:36.740Z,1025.09355956
2018-06-15T01:17:49.147Z,1025.09355956
2018-06-15T01:18:01.615Z,1025.16128732
2018-06-15T01:18:14.027Z,1025.16128732
2018-06-15T01:18:26.424Z,1025.16128732
2018-06-15T01:18:38.867Z,1025.16128732
2018-06-15T01:18:51.301Z,1025.16128732
2018-06-15T01:19:03.694Z,1025.12742344
2018-06-15T01:19:16.089Z,1025.12742344
2018-06-15T01:19:28.532Z,1025.12742344
2018-06-15T01:19:40.944Z,1025.12742344
2018-06-15T01:19:53.406Z,1025.12742344
2018-06-15T01:20:06.013Z,1025.16128732
2018-06-15T01:20:18.413Z,1025.16128732
2018-06-15T01:20:30.834Z,1025.16128732
2018-06-15T01:20:44.215Z,1025.16128732
2018-06-15T01:20:56.755Z,1025.16128732
2018-06-15T01:21:09.165Z,1025.16128732
2018-06-15T01:21:21.556Z,1025.16128732
2018-06-15T01:21:33.966Z,1025.16128732
2018-06-15T01:21:46.348Z,1025.16128732
2018-06-15T01:21:58.762Z,1025.16128732
2018-06-15T01:22:11.169Z,1025.12742344
2018-06-15T01:22:23.569Z,1025.12742344
2018-06-15T01:22:35.998Z,1025.12742344
2018-06-15T01:22:48.419Z,1025.12742344
2018-06-15T01:23:01.272Z,1025.16128732
2018-06-15T01:23:13.697Z,1025.16128732
2018-06-15T01:23:26.110Z,1025.16128732
2018-06-15T01:23:38.513Z,1025.16128732
2018-06-15T01:23:50.927Z,1025.16128732
2018-06-15T01:24:03.328Z,1025.12742344
2018-06-15T01:24:15.735Z,1025.12742344
2018-06-15T01:24:28.135Z,1025.12742344
2018-06-15T01:24:40.585Z,1025.12742344
2018-06-15T01:24:53.032Z,1025.12742344
2018-06-15T01:25:05.446Z,1025.1951512
2018-06-15T01:25:17.844Z,1025.1951512
2018-06-15T01:25:30.240Z,1025.1951512
2018-06-15T01:25:42.808Z,1025.1951512
2018-06-15T01:25:55.217Z,1025.1951512
2018-06-15T01:26:07.676Z,1025.1951512
2018-06-15T01:26:20.092Z,1025.1951512
2018-06-15T01:26:32.499Z,1025.1951512
2018-06-15T01:26:44.903Z,1025.1951512
2018-06-15T01:26:57.324Z,1025.1951512
2018-06-15T01:27:09.739Z,1025.1951512
2018-06-15T01:27:22.145Z,1025.1951512
2018-06-15T01:27:34.534Z,1025.1951512
2018-06-15T01:27:46.924Z,1025.1951512
2018-06-15T01:27:59.347Z,1025.1951512
2018-06-15T01:28:11.810Z,1025.22901508
2018-06-15T01:28:24.267Z,1025.22901508
2018-06-15T01:28:36.682Z,1025.22901508
2018-06-15T01:28:49.100Z,1025.22901508
2018-06-15T01:29:01.489Z,1025.26287896
2018-06-15T01:29:13.890Z,1025.26287896
2018-06-15T01:29:26.289Z,1025.26287896
2018-06-15T01:29:38.710Z,1025.26287896
2018-06-15T01:29:51.121Z,1025.26287896
2018-06-15T01:30:03.550Z,1025.22901508
2018-06-15T01:30:15.970Z,1025.22901508
2018-06-15T01:30:28.378Z,1025.22901508
2018-06-15T01:30:40.809Z,1025.22901508
2018-06-15T01:30:53.225Z,1025.22901508
2018-06-15T01:31:05.630Z,1025.16128732
2018-06-15T01:31:18.027Z,1025.16128732
2018-06-15T01:31:30.447Z,1025.16128732
2018-06-15T01:31:42.886Z,1025.16128732
2018-06-15T01:31:55.296Z,1025.16128732
2018-06-15T01:32:07.695Z,1025.22901508
2018-06-15T01:32:20.096Z,1025.22901508
2018-06-15T01:32:32.722Z,1025.22901508
2018-06-15T01:32:45.123Z,1025.22901508
2018-06-15T01:32:57.523Z,1025.22901508
2018-06-15T01:33:09.978Z,1025.26287896
2018-06-15T01:33:22.378Z,1025.26287896
2018-06-15T01:33:34.814Z,1025.26287896
2018-06-15T01:33:47.215Z,1025.26287896
2018-06-15T01:33:59.635Z,1025.26287896
2018-06-15T01:34:12.051Z,1025.26287896
2018-06-15T01:34:24.461Z,1025.26287896
2018-06-15T01:34:36.874Z,1025.26287896
2018-06-15T01:34:49.285Z,1025.26287896
2018-06-15T01:35:01.702Z,1025.29674284
2018-06-15T01:35:14.122Z,1025.29674284
2018-06-15T01:35:26.546Z,1025.29674284
2018-06-15T01:35:38.942Z,1025.29674284
2018-06-15T01:35:51.369Z,1025.29674284
2018-06-15T01:36:03.776Z,1025.29674284
2018-06-15T01:36:16.188Z,1025.29674284
2018-06-15T01:36:28.582Z,1025.29674284
2018-06-15T01:36:40.992Z,1025.29674284
2018-06-15T01:36:53.428Z,1025.29674284
2018-06-15T01:37:05.892Z,1025.36447061
2018-06-15T01:37:18.293Z,1025.36447061
2018-06-15T01:37:30.766Z,1025.36447061
2018-06-15T01:37:43.158Z,1025.36447061
2018-06-15T01:37:55.593Z,1025.36447061
2018-06-15T01:38:07.994Z,1025.22901508
2018-06-15T01:38:20.422Z,1025.22901508
2018-06-15T01:38:32.844Z,1025.22901508
2018-06-15T01:38:45.254Z,1025.22901508
2018-06-15T01:38:57.665Z,1025.22901508
2018-06-15T01:39:10.064Z,1025.33060673
2018-06-15T01:39:22.484Z,1025.33060673
2018-06-15T01:39:34.877Z,1025.33060673
2018-06-15T01:39:47.295Z,1025.33060673
2018-06-15T01:39:59.689Z,1025.33060673
2018-06-15T01:40:12.194Z,1025.29674284
2018-06-15T01:40:24.639Z,1025.29674284
2018-06-15T01:40:37.050Z,1025.29674284
2018-06-15T01:40:49.441Z,1025.29674284
2018-06-15T01:41:01.834Z,1025.29674284
2018-06-15T01:41:14.226Z,1025.29674284
2018-06-15T01:41:26.621Z,1025.29674284
2018-06-15T01:41:39.055Z,1025.29674284
2018-06-15T01:41:51.486Z,1025.29674284
2018-06-15T01:42:03.943Z,1025.29674284
2018-06-15T01:42:16.357Z,1025.29674284
2018-06-15T01:42:28.784Z,1025.29674284
2018-06-15T01:42:41.195Z,1025.29674284
2018-06-15T01:42:53.581Z,1025.29674284
2018-06-15T01:43:06.004Z,1025.26287896
2018-06-15T01:43:18.414Z,1025.26287896
2018-06-15T01:43:30.824Z,1025.26287896
2018-06-15T01:43:43.226Z,1025.26287896
2018-06-15T01:43:55.622Z,1025.26287896
2018-06-15T01:44:08.085Z,1025.22901508
2018-06-15T01:44:20.491Z,1025.22901508
2018-06-15T01:44:32.903Z,1025.22901508
2018-06-15T01:44:45.313Z,1025.22901508
2018-06-15T01:44:57.725Z,1025.22901508
2018-06-15T01:45:10.131Z,1025.26287896
2018-06-15T01:45:22.543Z,1025.26287896
2018-06-15T01:45:35.028Z,1025.26287896
2018-06-15T01:45:47.441Z,1025.26287896
2018-06-15T01:45:59.959Z,1025.26287896
2018-06-15T01:46:12.358Z,1025.26287896
2018-06-15T01:46:24.799Z,1025.26287896
2018-06-15T01:46:37.195Z,1025.26287896
2018-06-15T01:46:49.706Z,1025.26287896
2018-06-15T01:47:02.090Z,1025.26287896
2018-06-15T01:47:14.506Z,1025.26287896
2018-06-15T01:47:26.973Z,1025.26287896
2018-06-15T01:47:39.381Z,1025.26287896
2018-06-15T01:47:51.777Z,1025.26287896
2018-06-15T01:48:04.172Z,1025.22901508
2018-06-15T01:48:16.584Z,1025.22901508
2018-06-15T01:48:28.973Z,1025.22901508
2018-06-15T01:48:41.785Z,1025.22901508
2018-06-15T01:48:54.206Z,1025.22901508
2018-06-15T01:49:06.644Z,1025.29674284
2018-06-15T01:49:19.041Z,1025.29674284
2018-06-15T01:49:31.441Z,1025.29674284
2018-06-15T01:49:43.868Z,1025.29674284
2018-06-15T01:49:56.282Z,1025.29674284
2018-06-15T01:50:08.684Z,1025.29674284
2018-06-15T01:50:21.110Z,1025.29674284
2018-06-15T01:50:33.523Z,1025.29674284
2018-06-15T01:50:45.921Z,1025.29674284
2018-06-15T01:50:58.301Z,1025.29674284
2018-06-15T01:51:10.723Z,1025.22901508
2018-06-15T01:51:23.188Z,1025.22901508
2018-06-15T01:51:35.644Z,1025.22901508
2018-06-15T01:51:48.043Z,1025.22901508
2018-06-15T01:52:00.453Z,1025.22901508
2018-06-15T01:52:12.861Z,1025.22901508
2018-06-15T01:52:25.260Z,1025.22901508
2018-06-15T01:52:37.669Z,1025.22901508
2018-06-15T01:52:50.062Z,1025.22901508
2018-06-15T01:53:02.452Z,1025.1951512
2018-06-15T01:53:14.856Z,1025.1951512
2018-06-15T01:53:27.249Z,1025.1951512
2018-06-15T01:53:39.702Z,1025.1951512
2018-06-15T01:53:52.130Z,1025.1951512
2018-06-15T01:54:04.535Z,1025.22901508
2018-06-15T01:54:16.934Z,1025.22901508
2018-06-15T01:54:29.345Z,1025.22901508
2018-06-15T01:54:41.733Z,1025.22901508
2018-06-15T01:54:54.144Z,1025.22901508
2018-06-15T01:55:06.560Z,1025.29674284
2018-06-15T01:55:18.955Z,1025.29674284
2018-06-15T01:55:31.367Z,1025.29674284
2018-06-15T01:55:43.868Z,1025.29674284
2018-06-15T01:55:56.285Z,1025.29674284
2018-06-15T01:56:08.690Z,1025.16128732
2018-06-15T01:56:21.119Z,1025.16128732
2018-06-15T01:56:33.515Z,1025.16128732
2018-06-15T01:56:45.929Z,1025.16128732
2018-06-15T01:56:58.344Z,1025.16128732
2018-06-15T01:57:10.827Z,1025.1951512
2018-06-15T01:57:23.253Z,1025.1951512
2018-06-15T01:57:35.676Z,1025.1951512
2018-06-15T01:57:48.072Z,1025.1951512
2018-06-15T01:58:00.474Z,1025.1951512
2018-06-15T01:58:12.866Z,1025.1951512
2018-06-15T01:58:25.248Z,1025.1951512
2018-06-15T01:58:37.649Z,1025.1951512
2018-06-15T01:58:50.028Z,1025.1951512
2018-06-15T01:59:02.434Z,1025.26287896
2018-06-15T01:59:14.845Z,1025.26287896
2018-06-15T01:59:27.274Z,1025.26287896
2018-06-15T01:59:39.680Z,1025.26287896
2018-06-15T01:59:52.082Z,1025.26287896
2018-06-15T02:00:04.494Z,1025.22901508
2018-06-15T02:00:16.911Z,1025.22901508
2018-06-15T02:00:29.310Z,1025.22901508
2018-06-15T02:00:41.743Z,1025.22901508
2018-06-15T02:00:54.232Z,1025.22901508
2018-06-15T02:01:07.128Z,1025.16128732
2018-06-15T02:01:21.079Z,1025.16128732
2018-06-15T02:01:34.669Z,1025.16128732
2018-06-15T02:01:47.074Z,1025.16128732
2018-06-15T02:01:59.522Z,1025.16128732
2018-06-15T02:02:11.925Z,1025.22901508
2018-06-15T02:02:24.348Z,1025.22901508
2018-06-15T02:02:36.875Z,1025.22901508
2018-06-15T02:02:49.284Z,1025.22901508
2018-06-15T02:03:01.677Z,1025.16128732
2018-06-15T02:03:14.086Z,1025.16128732
2018-06-15T02:03:26.491Z,1025.16128732
2018-06-15T02:03:38.902Z,1025.16128732
2018-06-15T02:03:51.327Z,1025.16128732
2018-06-15T02:04:03.762Z,1025.26287896
2018-06-15T02:04:16.175Z,1025.26287896
2018-06-15T02:04:28.584Z,1025.26287896
2018-06-15T02:04:41.016Z,1025.26287896
2018-06-15T02:04:53.446Z,1025.26287896
2018-06-15T02:05:05.942Z,1025.22901508
2018-06-15T02:05:18.360Z,1025.22901508
2018-06-15T02:05:30.753Z,1025.22901508
2018-06-15T02:05:43.160Z,1025.22901508
2018-06-15T02:05:55.569Z,1025.22901508
2018-06-15T02:06:07.977Z,1025.12742344
2018-06-15T02:06:20.374Z,1025.12742344
2018-06-15T02:06:32.767Z,1025.12742344
2018-06-15T02:06:45.654Z,1025.12742344
2018-06-15T02:06:58.056Z,1025.12742344
2018-06-15T02:07:10.464Z,1025.26287896
2018-06-15T02:07:22.897Z,1025.26287896